createdAt,value
2018-05-12T00:01:28.949Z,80.50
2018-05-12T00:03:56.589Z,80.90
2018-05-12T00:06:24.087Z,81.10
2018-05-12T00:08:51.629Z,81.40
2018-05-12T00:11:19.142Z,81.80
2018-05-12T00:13:46.678Z,81.80
2018-05-12T00:16:14.190Z,81.70
2018-05-12T00:18:41.718Z,82.30
2018-05-12T00:21:09.234Z,81.60
2018-05-12T00:23:36.776Z,82.00
2018-05-12T00:26:04.411Z,81.70
2018-05-12T00:28:31.969Z,81.90
2018-05-12T00:30:59.478Z,82.30
2018-05-12T00:33:27.010Z,82.30
2018-05-12T00:35:54.511Z,81.60
2018-05-12T00:38:22.362Z,82.20
2018-05-12T00:40:50.651Z,82.20
2018-05-12T00:43:18.186Z,82.20
2018-05-12T00:45:45.691Z,81.90
2018-05-12T00:48:13.244Z,81.90
2018-05-12T00:50:40.739Z,82.00
2018-05-12T00:53:08.306Z,81.30
2018-05-12T00:55:35.850Z,82.10
2018-05-12T00:58:03.361Z,82.10
2018-05-12T01:00:30.858Z,82.00
2018-05-12T01:02:59.174Z,82.00
2018-05-12T01:05:26.683Z,82.00
2018-05-12T01:07:54.222Z,82.00
2018-05-12T01:10:21.719Z,82.40
2018-05-12T01:12:50.040Z,82.80
2018-05-12T01:15:17.547Z,82.80
2018-05-12T01:17:45.090Z,83.70
2018-05-12T01:20:12.588Z,83.70
2018-05-12T01:22:40.123Z,83.90
2018-05-12T01:25:07.635Z,83.50
2018-05-12T01:27:35.169Z,83.80
2018-05-12T01:30:02.680Z,83.90
2018-05-12T01:32:30.215Z,83.90
2018-05-12T01:34:58.680Z,84.20
2018-05-12T01:37:26.270Z,83.90
2018-05-12T01:39:53.787Z,83.30
2018-05-12T01:42:21.332Z,82.90
2018-05-12T01:44:48.829Z,82.10
2018-05-12T01:47:16.468Z,83.20
2018-05-12T01:49:43.966Z,82.90
2018-05-12T01:52:11.510Z,83.00
2018-05-12T01:54:39.007Z,82.80
2018-05-12T01:57:07.323Z,84.10
2018-05-12T01:59:34.818Z,84.10
2018-05-12T02:02:02.311Z,82.60
2018-05-12T02:04:29.842Z,82.60
2018-05-12T02:06:57.343Z,82.90
2018-05-12T02:09:24.884Z,83.30
2018-05-12T02:11:52.385Z,84.10
2018-05-12T02:14:19.919Z,83.90
2018-05-12T02:16:47.430Z,84.20
2018-05-12T02:19:14.986Z,84.70
2018-05-12T02:21:42.532Z,84.70
2018-05-12T02:24:10.064Z,85.60
2018-05-12T02:26:37.564Z,85.70
2018-05-12T02:29:05.099Z,85.70
2018-05-12T02:31:32.604Z,85.70
2018-05-12T02:34:00.147Z,84.80
2018-05-12T02:36:28.591Z,85.50
2018-05-12T02:38:56.127Z,85.40
2018-05-12T02:41:23.668Z,85.80
2018-05-12T02:43:51.171Z,85.50
2018-05-12T02:46:18.712Z,85.10
2018-05-12T02:48:46.223Z,84.60
2018-05-12T02:51:13.776Z,84.70
2018-05-12T02:53:41.270Z,84.20
2018-05-12T02:56:08.815Z,85.90
2018-05-12T02:58:36.359Z,85.80
2018-05-12T03:01:03.898Z,85.80
2018-05-12T03:03:31.391Z,85.00
2018-05-12T03:05:58.929Z,85.40
2018-05-12T03:08:26.428Z,84.80
2018-05-12T03:10:53.986Z,84.40
2018-05-12T03:13:21.501Z,84.50
2018-05-12T03:15:48.997Z,84.20
2018-05-12T03:18:16.627Z,83.80
2018-05-12T03:20:44.066Z,84.80
2018-05-12T03:23:11.637Z,84.80
2018-05-12T03:25:39.135Z,84.50
2018-05-12T03:28:06.667Z,84.40
2018-05-12T03:30:34.170Z,84.90
2018-05-12T03:33:01.761Z,85.10
2018-05-12T03:35:29.306Z,84.20
2018-05-12T03:37:56.847Z,84.90
2018-05-12T03:40:24.351Z,85.20
2018-05-12T03:42:51.886Z,85.70
2018-05-12T03:45:19.380Z,85.70
2018-05-12T03:47:46.910Z,85.60
2018-05-12T03:50:14.422Z,86.10
2018-05-12T03:52:43.020Z,85.80
2018-05-12T03:55:10.692Z,85.70
2018-05-12T03:57:38.214Z,85.20
2018-05-12T04:00:06.646Z,85.50
2018-05-12T04:02:34.055Z,85.40
2018-05-12T04:05:13.473Z,85.90
2018-05-12T04:07:52.722Z,86.10
2018-05-12T04:13:21.878Z,86.10
2018-05-12T04:15:49.430Z,85.90
2018-05-12T04:18:16.945Z,85.00
2018-05-12T04:20:44.512Z,85.40
2018-05-12T04:23:12.787Z,85.70
2018-05-12T04:25:41.088Z,86.00
2018-05-12T04:28:08.592Z,85.80
2018-05-12T04:30:36.133Z,86.00
2018-05-12T04:33:03.644Z,85.90
2018-05-12T04:35:31.957Z,86.00
2018-05-12T04:37:59.485Z,86.00
2018-05-12T04:40:27.013Z,85.70
2018-05-12T04:42:54.538Z,85.50
2018-05-12T04:45:22.084Z,85.30
2018-05-12T04:47:49.591Z,86.00
2018-05-12T04:50:17.910Z,85.80
2018-05-12T04:52:45.443Z,85.80
2018-05-12T04:55:12.949Z,85.10
2018-05-12T04:57:40.478Z,85.30
2018-05-12T05:00:08.739Z,85.80
2018-05-12T05:02:37.049Z,86.70
2018-05-12T05:05:04.561Z,86.60
2018-05-12T05:07:32.106Z,86.40
2018-05-12T05:09:59.610Z,85.80
2018-05-12T05:12:27.142Z,86.20
2018-05-12T05:14:54.642Z,85.90
2018-05-12T05:17:22.177Z,85.30
2018-05-12T05:19:50.451Z,85.80
2018-05-12T05:22:18.764Z,85.40
2018-05-12T05:24:46.264Z,85.30
2018-05-12T05:27:14.565Z,85.50
2018-05-12T05:29:42.067Z,85.50
2018-05-12T05:32:09.632Z,85.50
2018-05-12T05:34:37.148Z,85.80
2018-05-12T05:37:04.639Z,85.40
2018-05-12T05:39:32.174Z,85.70
2018-05-12T05:41:59.669Z,85.20
2018-05-12T05:44:27.218Z,85.00
2018-05-12T05:46:54.711Z,84.70
2018-05-12T05:49:22.251Z,84.30
2018-05-12T05:51:49.764Z,84.40
2018-05-12T05:54:17.297Z,83.80
2018-05-12T05:56:45.585Z,83.50
2018-05-12T05:59:13.925Z,83.60
2018-05-12T06:01:41.477Z,83.50
2018-05-12T06:04:09.022Z,83.60
2018-05-12T06:06:36.595Z,83.80
2018-05-12T06:09:04.185Z,83.80
2018-05-12T06:11:31.727Z,82.40
2018-05-12T06:14:00.126Z,82.50
2018-05-12T06:16:27.640Z,82.60
2018-05-12T06:18:55.193Z,82.60
2018-05-12T06:21:22.739Z,82.40
2018-05-12T06:23:50.238Z,82.10
2018-05-12T06:26:17.774Z,81.60
2018-05-12T06:28:45.437Z,81.40
2018-05-12T06:31:12.998Z,81.10
2018-05-12T06:33:40.502Z,81.60
2018-05-12T06:36:08.064Z,81.30
2018-05-12T06:38:35.613Z,81.60
2018-05-12T06:41:03.151Z,81.20
2018-05-12T06:43:30.658Z,81.50
2018-05-12T06:45:58.187Z,80.80
2018-05-12T06:48:25.687Z,80.00
2018-05-12T06:50:53.227Z,80.60
2018-05-12T06:53:20.735Z,80.10
2018-05-12T06:55:48.258Z,80.20
2018-05-12T06:58:15.763Z,80.20
2018-05-12T07:00:43.306Z,80.30
2018-05-12T07:03:10.848Z,80.30
2018-05-12T07:05:38.386Z,80.40
2018-05-12T07:08:05.907Z,80.50
2018-05-12T07:10:33.474Z,79.90
2018-05-12T07:13:00.982Z,79.70
2018-05-12T07:15:28.531Z,79.10
2018-05-12T07:17:56.069Z,79.30
2018-05-12T07:20:23.570Z,78.50
2018-05-12T07:22:51.115Z,78.70
2018-05-12T07:25:18.618Z,78.60
2018-05-12T07:27:46.178Z,79.20
2018-05-12T07:30:13.675Z,79.10
2018-05-12T07:32:41.978Z,78.70
2018-05-12T07:35:09.482Z,78.80
2018-05-12T07:37:37.031Z,78.60
2018-05-12T07:40:04.659Z,77.70
2018-05-12T07:42:32.263Z,77.40
2018-05-12T07:44:59.765Z,77.70
2018-05-12T07:47:27.331Z,76.30
2018-05-12T07:49:54.845Z,75.30
2018-05-12T07:52:23.122Z,75.00
2018-05-12T07:54:52.158Z,74.80
2018-05-12T07:57:19.677Z,74.80
2018-05-12T07:59:47.271Z,74.40
2018-05-12T08:02:14.774Z,74.90
2018-05-12T08:04:42.330Z,74.20
2018-05-12T08:07:09.838Z,74.40
2018-05-12T08:09:37.378Z,73.50
2018-05-12T08:12:04.899Z,73.30
2018-05-12T08:14:32.478Z,73.20
2018-05-12T08:16:59.990Z,73.20
2018-05-12T08:19:27.774Z,73.00
2018-05-12T08:21:55.298Z,72.70
2018-05-12T08:24:22.842Z,72.40
2018-05-12T08:26:51.156Z,72.40
2018-05-12T08:29:18.689Z,73.00
2018-05-12T08:31:46.227Z,72.80
2018-05-12T08:34:14.517Z,73.40
2018-05-12T08:36:42.085Z,73.40
2018-05-12T08:39:09.595Z,73.80
2018-05-12T08:41:37.148Z,74.20
2018-05-12T08:44:04.642Z,73.60
2018-05-12T08:46:32.191Z,73.30
2018-05-12T08:48:59.695Z,73.10
2018-05-12T08:51:27.227Z,73.10
2018-05-12T08:53:54.728Z,72.80
2018-05-12T08:56:22.285Z,72.40
2018-05-12T08:58:49.794Z,72.00
2018-05-12T09:01:17.394Z,72.00
2018-05-12T09:03:44.889Z,71.70
2018-05-12T09:06:12.423Z,71.30
2018-05-12T09:08:39.935Z,71.40
2018-05-12T09:11:08.263Z,71.00
2018-05-12T09:13:35.771Z,71.00
2018-05-12T09:16:03.283Z,70.80
2018-05-12T09:18:30.835Z,70.80
2018-05-12T09:20:58.404Z,70.90
2018-05-12T09:23:25.918Z,70.90
2018-05-12T09:25:54.260Z,71.00
2018-05-12T09:28:21.769Z,71.00
2018-05-12T09:30:49.448Z,71.00
2018-05-12T09:33:17.042Z,71.00
2018-05-12T09:35:46.093Z,70.10
2018-05-12T09:38:13.611Z,70.10
2018-05-12T09:40:41.320Z,70.20
2018-05-12T09:43:08.819Z,70.00
2018-05-12T09:45:36.387Z,70.10
2018-05-12T09:48:03.892Z,69.90
2018-05-12T09:50:31.484Z,69.80
2018-05-12T09:52:59.019Z,69.70
2018-05-12T09:55:26.568Z,69.30
2018-05-12T09:57:54.058Z,69.00
2018-05-12T10:00:25.553Z,68.70
2018-05-12T10:02:53.895Z,68.70
2018-05-12T10:05:21.430Z,68.70
2018-05-12T10:07:48.939Z,68.40
2018-05-12T10:10:17.268Z,68.20
2018-05-12T10:12:44.798Z,68.10
2018-05-12T10:15:12.343Z,68.30
2018-05-12T10:17:39.858Z,68.60
2018-05-12T10:20:07.444Z,68.10
2018-05-12T10:22:35.890Z,67.00
2018-05-12T10:25:03.516Z,66.90
2018-05-12T10:27:31.159Z,67.30
2018-05-12T10:29:58.722Z,67.10
2018-05-12T10:32:27.336Z,68.40
2018-05-12T10:34:54.838Z,68.30
2018-05-12T10:37:22.428Z,68.80
2018-05-12T10:39:49.919Z,68.80
2018-05-12T10:42:17.587Z,69.00
2018-05-12T10:44:45.111Z,68.40
2018-05-12T10:47:13.418Z,69.00
2018-05-12T10:49:40.920Z,68.90
2018-05-12T10:52:08.456Z,68.70
2018-05-12T10:54:35.963Z,68.80
2018-05-12T10:57:04.280Z,69.20
2018-05-12T10:59:31.798Z,69.20
2018-05-12T11:01:59.378Z,69.60
2018-05-12T11:04:26.872Z,69.30
2018-05-12T11:06:54.606Z,69.20
2018-05-12T11:09:22.140Z,69.60
2018-05-12T11:11:50.551Z,68.90
2018-05-12T11:14:18.080Z,68.90
2018-05-12T11:16:45.636Z,69.20
2018-05-12T11:19:13.438Z,69.40
2018-05-12T11:21:41.220Z,69.20
2018-05-12T11:24:08.540Z,69.70
2018-05-12T11:26:36.296Z,70.10
2018-05-12T11:29:03.821Z,69.30
2018-05-12T11:31:31.364Z,69.20
2018-05-12T11:33:58.891Z,69.00
2018-05-12T11:36:26.975Z,68.10
2018-05-12T11:38:54.497Z,67.50
2018-05-12T11:41:21.998Z,67.90
2018-05-12T11:43:49.542Z,67.90
2018-05-12T11:46:17.098Z,68.30
2018-05-12T11:48:44.625Z,69.10
2018-05-12T11:51:12.179Z,68.70
2018-05-12T11:53:40.499Z,67.60
2018-05-12T11:56:08.006Z,67.60
2018-05-12T11:58:35.617Z,67.50
2018-05-12T12:01:03.139Z,67.50
2018-05-12T12:03:30.765Z,67.40
2018-05-12T12:05:58.561Z,67.80
2018-05-12T12:08:26.837Z,67.80
2018-05-12T12:10:55.151Z,67.30
2018-05-12T12:13:22.666Z,67.20
2018-05-12T12:15:50.204Z,67.80
2018-05-12T12:18:17.724Z,67.80
2018-05-12T12:20:45.281Z,66.90
2018-05-12T12:23:12.848Z,67.10
2018-05-12T12:25:40.406Z,68.20
2018-05-12T12:28:07.917Z,68.40
2018-05-12T12:30:36.248Z,68.70
2018-05-12T12:33:03.761Z,68.70
2018-05-12T12:35:31.319Z,68.20
2018-05-12T12:37:58.861Z,67.30
2018-05-12T12:40:26.440Z,66.90
2018-05-12T12:42:53.975Z,68.00
2018-05-12T12:45:21.538Z,67.80
2018-05-12T12:47:49.060Z,67.10
2018-05-12T12:50:16.615Z,66.50
2018-05-12T12:52:44.115Z,66.70
2018-05-12T12:55:11.687Z,66.50
2018-05-12T12:57:39.982Z,64.50
2018-05-12T13:00:07.525Z,65.10
2018-05-12T13:02:35.070Z,63.80
2018-05-12T13:05:02.591Z,62.70
2018-05-12T13:07:30.151Z,60.70
2018-05-12T13:09:57.659Z,60.00
2018-05-12T13:12:25.968Z,58.30
2018-05-12T13:14:53.478Z,57.40
2018-05-12T13:17:22.546Z,54.40
2018-05-12T13:19:50.086Z,54.30
2018-05-12T13:22:17.646Z,54.60
2018-05-12T13:24:45.163Z,55.00
2018-05-12T13:27:12.808Z,52.30
2018-05-12T13:29:40.352Z,52.00
2018-05-12T13:32:07.906Z,50.40
2018-05-12T13:34:35.484Z,49.80
2018-05-12T13:37:03.878Z,48.60
2018-05-12T13:39:31.423Z,48.60
2018-05-12T13:41:58.967Z,47.60
2018-05-12T13:44:26.485Z,47.00
2018-05-12T13:46:54.042Z,45.10
2018-05-12T13:49:21.550Z,43.70
2018-05-12T13:51:49.092Z,43.90
2018-05-12T13:54:16.666Z,43.60
2018-05-12T13:56:44.213Z,41.90
2018-05-12T13:59:11.729Z,40.00
2018-05-12T14:01:40.047Z,41.00
2018-05-12T14:04:07.592Z,41.20
2018-05-12T14:06:35.119Z,40.10
2018-05-12T14:09:03.433Z,38.30
2018-05-12T14:11:30.946Z,38.30
2018-05-12T14:13:58.494Z,39.10
2018-05-12T14:16:25.991Z,37.80
2018-05-12T14:18:53.553Z,38.00
2018-05-12T14:21:21.074Z,36.80
2018-05-12T14:23:48.607Z,36.30
2018-05-12T14:26:16.135Z,35.90
2018-05-12T14:28:43.683Z,37.60
2018-05-12T14:31:11.242Z,36.90
2018-05-12T14:33:39.106Z,37.40
2018-05-12T14:36:06.614Z,37.50
2018-05-12T14:38:34.133Z,38.50
2018-05-12T14:41:01.678Z,37.90
2018-05-12T14:43:29.187Z,39.70
2018-05-12T14:45:56.726Z,40.50
2018-05-12T14:48:24.222Z,41.60
2018-05-12T14:50:51.783Z,43.70
2018-05-12T14:53:19.291Z,44.10
2018-05-12T14:55:46.842Z,44.90
2018-05-12T14:58:14.348Z,44.60
2018-05-12T15:00:41.975Z,45.90
2018-05-12T15:03:09.479Z,46.10
2018-05-12T15:05:37.012Z,46.90
2018-05-12T15:08:04.518Z,46.00
2018-05-12T15:10:32.054Z,44.70
2018-05-12T15:12:59.560Z,42.00
2018-05-12T15:15:27.120Z,43.20
2018-05-12T15:17:54.636Z,40.30
2018-05-12T15:20:22.169Z,38.90
2018-05-12T15:22:49.671Z,37.80
2018-05-12T15:25:17.217Z,36.40
2018-05-12T15:27:44.735Z,34.70
2018-05-12T15:30:12.248Z,33.50
2018-05-12T15:32:39.789Z,32.50
2018-05-12T15:35:07.290Z,32.30
2018-05-12T15:37:34.873Z,32.60
2018-05-12T15:40:02.418Z,31.20
2018-05-12T15:42:30.019Z,30.70
2018-05-12T15:44:58.083Z,29.70
2018-05-12T15:47:25.611Z,28.90
2018-05-12T15:49:53.143Z,28.70
2018-05-12T15:52:20.667Z,28.30
2018-05-12T15:54:48.165Z,28.40
2018-05-12T15:57:17.338Z,28.00
2018-05-12T15:59:44.856Z,28.10
2018-05-12T16:02:12.359Z,28.50
2018-05-12T16:04:40.753Z,27.50
2018-05-12T16:07:08.280Z,27.40
2018-05-12T16:09:35.825Z,27.40
2018-05-12T16:12:04.408Z,27.10
2018-05-12T16:14:31.912Z,26.50
2018-05-12T16:17:00.192Z,28.10
2018-05-12T16:19:27.750Z,28.10
2018-05-12T16:21:55.250Z,30.40
2018-05-12T16:24:23.551Z,34.70
2018-05-12T16:26:51.064Z,34.60
2018-05-12T16:29:18.632Z,38.60
2018-05-12T16:31:46.133Z,40.60
2018-05-12T16:34:13.687Z,40.40
2018-05-12T16:36:41.187Z,41.50
2018-05-12T16:39:08.737Z,43.20
2018-05-12T16:41:37.040Z,45.70
2018-05-12T16:44:04.601Z,45.70
2018-05-12T16:46:32.117Z,47.10
2018-05-12T16:49:00.462Z,49.20
2018-05-12T16:51:29.507Z,50.90
2018-05-12T16:53:57.843Z,51.30
2018-05-12T16:56:25.360Z,51.10
2018-05-12T16:58:52.877Z,50.90
2018-05-12T17:01:20.474Z,51.50
2018-05-12T17:03:47.973Z,51.90
2018-05-12T17:06:15.520Z,52.70
2018-05-12T17:08:43.029Z,53.10
2018-05-12T17:11:10.567Z,53.60
2018-05-12T17:13:38.084Z,53.90
2018-05-12T17:16:05.658Z,54.40
2018-05-12T17:18:33.246Z,54.80
2018-05-12T17:21:00.808Z,55.10
2018-05-12T17:23:28.338Z,55.50
2018-05-12T17:25:55.898Z,56.30
2018-05-12T17:28:23.407Z,56.70
2018-05-12T17:30:51.731Z,56.80
2018-05-12T17:33:19.283Z,56.70
2018-05-12T17:35:46.927Z,56.70
2018-05-12T17:38:14.432Z,57.30
2018-05-12T17:40:42.137Z,57.70
2018-05-12T17:43:09.647Z,58.50
2018-05-12T17:45:37.204Z,58.30
2018-05-12T17:48:04.730Z,58.70
2018-05-12T17:50:32.274Z,59.10
2018-05-12T17:52:59.835Z,59.20
2018-05-12T17:55:27.346Z,59.50
2018-05-12T17:57:54.923Z,59.70
2018-05-12T18:00:23.154Z,60.00
2018-05-12T18:02:50.750Z,60.20
2018-05-12T18:05:18.247Z,60.60
2018-05-12T18:07:45.922Z,60.60
2018-05-12T18:10:13.422Z,61.00
2018-05-12T18:12:40.953Z,60.90
2018-05-12T18:15:08.474Z,61.70
2018-05-12T18:17:36.027Z,61.70
2018-05-12T18:20:04.289Z,61.60
2018-05-12T18:22:31.908Z,61.50
2018-05-12T18:24:59.373Z,61.60
2018-05-12T18:27:26.871Z,61.50
2018-05-12T18:29:55.187Z,61.50
2018-05-12T18:32:22.690Z,61.40
2018-05-12T18:34:50.226Z,62.00
2018-05-12T18:37:17.749Z,62.20
2018-05-12T18:39:45.294Z,62.50
2018-05-12T18:42:12.811Z,62.30
2018-05-12T18:44:40.374Z,62.50
2018-05-12T18:47:07.903Z,62.80
2018-05-12T18:49:35.453Z,62.90
2018-05-12T18:52:02.968Z,63.10
2018-05-12T18:54:30.790Z,63.00
2018-05-12T18:56:58.314Z,63.40
2018-05-12T18:59:25.850Z,63.60
2018-05-12T19:01:53.350Z,63.50
2018-05-12T19:04:20.902Z,63.80
2018-05-12T19:06:48.428Z,64.00
2018-05-12T19:09:15.976Z,64.00
2018-05-12T19:11:43.478Z,64.30
2018-05-12T19:14:11.015Z,64.20
2018-05-12T19:16:39.291Z,64.80
2018-05-12T19:19:07.629Z,64.70
2018-05-12T19:21:35.126Z,64.70
2018-05-12T19:24:02.639Z,65.30
2018-05-12T19:26:30.184Z,65.20
2018-05-12T19:28:57.684Z,65.20
2018-05-12T19:31:25.217Z,65.30
2018-05-12T19:33:52.757Z,65.20
2018-05-12T19:36:20.270Z,65.30
2018-05-12T19:38:48.563Z,65.80
2018-05-12T19:41:16.111Z,65.80
2018-05-12T19:43:44.747Z,66.30
2018-05-12T19:46:12.248Z,66.20
2018-05-12T19:48:39.752Z,66.30
2018-05-12T19:51:07.283Z,66.40
2018-05-12T19:53:34.791Z,66.50
2018-05-12T19:56:02.329Z,66.20
2018-05-12T19:58:29.833Z,66.50
2018-05-12T20:00:57.396Z,66.70
2018-05-12T20:03:24.915Z,66.80
2018-05-12T20:05:52.462Z,67.10
2018-05-12T20:08:19.976Z,67.10
2018-05-12T20:10:47.519Z,67.30
2018-05-12T20:13:15.014Z,67.80
2018-05-12T20:15:42.562Z,66.90
2018-05-12T20:18:10.068Z,67.30
2018-05-12T20:20:37.574Z,67.60
2018-05-12T20:23:05.117Z,67.30
2018-05-12T20:25:32.612Z,67.50
2018-05-12T20:28:00.168Z,67.70
2018-05-12T20:30:27.682Z,67.90
2018-05-12T20:32:55.233Z,67.90
2018-05-12T20:35:22.754Z,68.10
2018-05-12T20:37:50.286Z,68.20
2018-05-12T20:40:17.798Z,68.20
2018-05-12T20:42:45.370Z,68.30
2018-05-12T20:45:12.877Z,68.80
2018-05-12T20:47:41.200Z,69.10
2018-05-12T20:50:08.750Z,69.00
2018-05-12T20:52:36.310Z,69.00
2018-05-12T20:55:03.823Z,69.00
2018-05-12T20:57:31.387Z,69.00
2018-05-12T20:59:59.665Z,68.90
2018-05-12T21:02:27.969Z,69.40
2018-05-12T21:04:55.535Z,69.40
2018-05-12T21:07:23.043Z,70.00
2018-05-12T21:09:50.631Z,70.10
2018-05-12T21:12:18.136Z,70.70
2018-05-12T21:14:45.683Z,71.00
2018-05-12T21:17:13.196Z,70.80
2018-05-12T21:19:40.934Z,71.30
2018-05-12T21:22:08.427Z,71.30
2018-05-12T21:24:36.747Z,71.30
2018-05-12T21:27:04.254Z,71.20
2018-05-12T21:29:31.806Z,71.70
2018-05-12T21:32:00.130Z,71.80
2018-05-12T21:34:27.702Z,71.80
2018-05-12T21:36:55.224Z,71.60
2018-05-12T21:39:23.493Z,72.30
2018-05-12T21:41:51.808Z,73.00
2018-05-12T21:44:19.314Z,72.90
2018-05-12T21:46:46.862Z,72.90
2018-05-12T21:49:14.388Z,72.90
2018-05-12T21:51:41.939Z,72.80
2018-05-12T21:54:09.453Z,73.20
2018-05-12T21:56:37.767Z,73.50
2018-05-12T21:59:05.322Z,73.50
2018-05-12T22:01:32.830Z,73.50
2018-05-12T22:04:00.424Z,74.40
2018-05-12T22:06:28.014Z,74.30
2018-05-12T22:08:55.550Z,74.10
2018-05-12T22:11:23.053Z,73.80
2018-05-12T22:13:50.597Z,74.40
2018-05-12T22:16:18.111Z,74.30
2018-05-12T22:18:45.641Z,74.30
2018-05-12T22:21:13.137Z,75.30
2018-05-12T22:23:41.452Z,75.60
2018-05-12T22:26:08.962Z,75.50
2018-05-12T22:28:36.626Z,75.50
2018-05-12T22:31:04.132Z,75.50
2018-05-12T22:33:31.675Z,75.50
2018-05-12T22:35:59.170Z,75.40
2018-05-12T22:38:26.703Z,75.80
2018-05-12T22:40:54.207Z,75.90
2018-05-12T22:43:21.746Z,75.80
2018-05-12T22:45:49.239Z,75.10
2018-05-12T22:48:16.768Z,75.50
2018-05-12T22:50:44.298Z,76.10
2018-05-12T22:53:11.877Z,76.40
2018-05-12T22:55:39.378Z,76.10
2018-05-12T22:58:07.701Z,76.70
2018-05-12T23:00:35.207Z,76.70
2018-05-12T23:03:02.702Z,76.70
2018-05-12T23:05:30.329Z,76.60
2018-05-12T23:07:57.830Z,76.60
2018-05-12T23:10:25.360Z,76.60
2018-05-12T23:12:52.871Z,76.50
2018-05-12T23:15:20.425Z,76.50
2018-05-12T23:17:47.931Z,76.50
2018-05-12T23:20:15.477Z,76.50
2018-05-12T23:22:47.844Z,76.50
2018-05-12T23:25:15.389Z,77.00
2018-05-12T23:27:42.900Z,76.80
2018-05-12T23:30:10.442Z,77.20
2018-05-12T23:32:37.951Z,77.70
2018-05-12T23:35:05.487Z,77.90
2018-05-12T23:37:32.991Z,77.40
2018-05-12T23:40:01.306Z,77.00
2018-05-12T23:42:28.827Z,77.00
2018-05-12T23:44:56.429Z,77.30
2018-05-12T23:47:23.922Z,77.70
2018-05-12T23:49:51.462Z,77.90
2018-05-12T23:52:18.977Z,77.90
2018-05-12T23:54:47.291Z,78.10
2018-05-12T23:57:14.841Z,78.10
2018-05-12T23:59:42.346Z,78.10
